createdAt,value
2019-06-15T00:01:00.963Z,15.50
2019-06-15T00:03:29.816Z,7.63
2019-06-15T00:05:59.547Z,8.10
2019-06-15T00:08:29.210Z,6.70
2019-06-15T00:10:58.099Z,7.07
2019-06-15T00:13:27.220Z,6.93
2019-06-15T00:15:56.410Z,6.27
2019-06-15T00:18:25.518Z,6.80
2019-06-15T00:20:54.489Z,6.80
2019-06-15T00:23:23.307Z,7.37
2019-06-15T00:25:52.344Z,6.53
2019-06-15T00:28:21.270Z,7.80
2019-06-15T00:30:50.227Z,6.87
2019-06-15T00:33:19.071Z,7.83
2019-06-15T00:35:48.028Z,7.73
2019-06-15T00:38:16.947Z,7.10
2019-06-15T00:40:46.057Z,9.20
2019-06-15T00:43:14.976Z,8.87
2019-06-15T00:45:43.812Z,9.40
2019-06-15T00:48:12.921Z,9.00
2019-06-15T00:50:41.816Z,10.00
2019-06-15T00:53:10.615Z,8.67
2019-06-15T00:55:39.461Z,10.40
2019-06-15T00:58:08.507Z,8.30
2019-06-15T01:00:38.042Z,9.73
2019-06-15T01:03:07.051Z,9.23
2019-06-15T01:05:35.862Z,7.43
2019-06-15T01:08:04.877Z,9.53
2019-06-15T01:10:33.891Z,9.10
2019-06-15T01:13:02.805Z,8.20
2019-06-15T01:15:31.803Z,9.43
2019-06-15T01:18:00.631Z,8.70
2019-06-15T01:20:29.803Z,9.30
2019-06-15T01:22:58.736Z,8.20
2019-06-15T01:25:28.068Z,7.80
2019-06-15T01:27:56.970Z,10.13
2019-06-15T01:30:25.818Z,9.77
2019-06-15T01:32:54.736Z,9.63
2019-06-15T01:35:23.723Z,8.70
2019-06-15T01:37:52.668Z,8.10
2019-06-15T01:40:22.320Z,9.40
2019-06-15T01:42:51.198Z,9.80
2019-06-15T01:45:26.199Z,11.00
2019-06-15T01:47:55.556Z,9.30
2019-06-15T01:50:24.563Z,9.33
2019-06-15T01:52:53.587Z,8.90
2019-06-15T01:55:22.477Z,8.63
2019-06-15T01:57:51.304Z,8.47
2019-06-15T02:00:21.757Z,8.70
2019-06-15T02:02:50.743Z,8.53
2019-06-15T02:05:20.040Z,7.63
2019-06-15T02:07:49.110Z,8.67
2019-06-15T02:10:18.771Z,9.40
2019-06-15T02:12:47.698Z,10.20
2019-06-15T02:15:17.073Z,10.40
2019-06-15T02:17:45.963Z,9.13
2019-06-15T02:20:15.462Z,10.63
2019-06-15T02:22:44.389Z,9.93
2019-06-15T02:25:16.624Z,9.63
2019-06-15T02:27:45.462Z,8.30
2019-06-15T02:30:14.562Z,9.63
2019-06-15T02:32:43.379Z,9.90
2019-06-15T02:35:12.496Z,8.63
2019-06-15T02:37:41.324Z,7.90
2019-06-15T02:40:10.495Z,7.73
2019-06-15T02:42:39.399Z,7.30
2019-06-15T02:45:08.673Z,6.50
2019-06-15T02:47:37.880Z,7.47
2019-06-15T02:50:07.169Z,7.03
2019-06-15T02:52:36.660Z,6.40
2019-06-15T02:55:06.485Z,7.37
2019-06-15T02:57:35.531Z,6.87
2019-06-15T03:00:05.258Z,6.87
2019-06-15T03:02:34.419Z,9.40
2019-06-15T03:05:03.316Z,7.90
2019-06-15T03:07:32.401Z,11.27
2019-06-15T03:10:02.104Z,10.70
2019-06-15T03:12:31.605Z,11.13
2019-06-15T03:15:01.312Z,9.13
2019-06-15T03:17:30.188Z,9.57
2019-06-15T03:19:59.648Z,9.27
2019-06-15T03:22:28.707Z,9.07
2019-06-15T03:24:57.619Z,9.07
2019-06-15T03:27:26.539Z,8.57
2019-06-15T03:29:55.749Z,9.00
2019-06-15T03:32:24.585Z,9.93
2019-06-15T03:34:53.457Z,8.10
2019-06-15T03:37:22.306Z,8.60
2019-06-15T03:39:51.139Z,9.33
2019-06-15T03:42:19.996Z,8.10
2019-06-15T03:44:49.099Z,8.47
2019-06-15T03:47:18.161Z,7.10
2019-06-15T03:49:46.988Z,8.03
2019-06-15T03:52:15.910Z,8.73
2019-06-15T03:54:44.714Z,9.33
2019-06-15T03:57:13.526Z,9.73
2019-06-15T03:59:42.665Z,8.50
2019-06-15T04:02:11.658Z,10.40
2019-06-15T04:04:40.477Z,9.23
2019-06-15T04:07:09.362Z,12.20
2019-06-15T04:09:38.182Z,9.90
2019-06-15T04:12:07.034Z,12.17
2019-06-15T04:14:35.843Z,10.43
2019-06-15T04:17:04.822Z,10.53
2019-06-15T04:19:33.633Z,10.43
2019-06-15T04:22:02.496Z,10.10
2019-06-15T04:24:31.317Z,11.77
2019-06-15T04:27:00.272Z,12.63
2019-06-15T04:29:29.105Z,10.87
2019-06-15T04:31:58.011Z,12.17
2019-06-15T04:34:27.200Z,10.77
2019-06-15T04:36:56.067Z,11.03
2019-06-15T04:39:24.880Z,10.77
2019-06-15T04:41:53.696Z,11.63
2019-06-15T04:44:22.892Z,11.10
2019-06-15T04:46:52.571Z,9.80
2019-06-15T04:49:21.471Z,9.63
2019-06-15T04:51:50.624Z,9.40
2019-06-15T04:54:19.444Z,10.20
2019-06-15T04:56:51.266Z,9.83
2019-06-15T04:59:19.189Z,9.80
2019-06-15T05:01:48.101Z,8.60
2019-06-15T05:04:17.023Z,10.00
2019-06-15T05:06:45.902Z,10.43
2019-06-15T05:09:14.784Z,8.80
2019-06-15T05:11:43.647Z,9.60
2019-06-15T05:14:12.611Z,8.13
2019-06-15T05:16:41.435Z,8.00
2019-06-15T05:19:10.634Z,7.90
2019-06-15T05:21:39.444Z,8.10
2019-06-15T05:24:08.766Z,7.70
2019-06-15T05:26:40.116Z,6.70
2019-06-15T05:29:08.978Z,6.97
2019-06-15T05:31:38.143Z,8.47
2019-06-15T05:34:07.055Z,7.67
2019-06-15T05:36:35.887Z,7.30
2019-06-15T05:39:06.532Z,9.07
2019-06-15T05:41:35.425Z,7.47
2019-06-15T05:44:04.570Z,8.03
2019-06-15T05:46:33.922Z,7.53
2019-06-15T05:49:03.307Z,9.60
2019-06-15T05:51:32.240Z,9.70
2019-06-15T05:54:01.115Z,9.77
2019-06-15T05:56:33.311Z,8.63
2019-06-15T05:59:00.711Z,8.80
2019-06-15T06:01:30.265Z,10.00
2019-06-15T06:03:59.201Z,10.27
2019-06-15T06:06:28.079Z,9.53
2019-06-15T06:08:58.816Z,9.77
2019-06-15T06:11:27.629Z,10.87
2019-06-15T06:13:56.447Z,9.37
2019-06-15T06:16:25.289Z,11.07
2019-06-15T06:18:54.187Z,10.17
2019-06-15T06:21:23.152Z,10.70
2019-06-15T06:23:51.981Z,12.50
2019-06-15T06:26:29.582Z,12.93
2019-06-15T06:28:58.673Z,12.03
2019-06-15T06:31:27.506Z,12.30
2019-06-15T06:33:56.322Z,13.27
2019-06-15T06:36:25.955Z,11.33
2019-06-15T06:38:55.095Z,9.67
2019-06-15T06:41:23.934Z,8.77
2019-06-15T06:43:53.252Z,9.23
2019-06-15T06:46:22.416Z,8.40
2019-06-15T06:48:51.481Z,7.27
2019-06-15T06:51:20.420Z,6.30
2019-06-15T06:53:50.484Z,5.50
2019-06-15T06:56:19.469Z,5.80
2019-06-15T06:58:48.357Z,5.07
2019-06-15T07:01:17.188Z,5.93
2019-06-15T07:03:46.356Z,5.00
2019-06-15T07:06:16.088Z,5.23
2019-06-15T07:08:47.939Z,4.80
2019-06-15T07:11:15.455Z,4.50
2019-06-15T07:13:44.568Z,5.10
2019-06-15T07:16:13.486Z,5.60
2019-06-15T07:18:42.476Z,4.80
2019-06-15T07:21:11.414Z,4.90
2019-06-15T07:23:40.287Z,4.17
2019-06-15T07:26:09.436Z,5.65
2019-06-15T07:28:38.708Z,4.40
2019-06-15T07:31:08.872Z,5.80
2019-06-15T07:33:37.724Z,3.80
2019-06-15T07:36:06.624Z,4.70
2019-06-15T07:38:35.622Z,4.73
2019-06-15T07:41:04.809Z,3.73
2019-06-15T07:43:33.649Z,3.80
2019-06-15T07:46:02.578Z,4.17
2019-06-15T07:48:31.640Z,4.30
2019-06-15T07:51:01.736Z,3.97
2019-06-15T07:53:30.559Z,4.13
2019-06-15T07:55:59.409Z,4.63
2019-06-15T07:58:28.232Z,3.80
2019-06-15T08:00:57.198Z,2.70
2019-06-15T08:03:26.733Z,2.47
2019-06-15T08:05:55.519Z,2.50
2019-06-15T08:08:24.582Z,3.97
2019-06-15T08:10:53.543Z,2.30
2019-06-15T08:13:22.494Z,1.53
2019-06-15T08:15:51.298Z,1.60
2019-06-15T08:18:20.551Z,1.40
2019-06-15T08:20:49.743Z,1.40
2019-06-15T08:23:18.623Z,1.83
2019-06-15T08:25:49.283Z,1.97
2019-06-15T08:28:18.192Z,2.47
2019-06-15T08:30:47.280Z,1.83
2019-06-15T08:33:17.299Z,2.63
2019-06-15T08:35:46.966Z,2.30
2019-06-15T08:38:15.874Z,1.73
2019-06-15T08:40:44.890Z,1.53
2019-06-15T08:43:13.939Z,1.27
2019-06-15T08:45:42.885Z,1.60
2019-06-15T08:48:12.416Z,1.67
2019-06-15T08:50:41.439Z,1.33
2019-06-15T08:53:10.463Z,1.73
2019-06-15T08:55:45.291Z,1.40
2019-06-15T08:58:14.492Z,1.10
2019-06-15T09:00:43.386Z,1.00
2019-06-15T09:03:12.800Z,0.90
2019-06-15T09:05:41.662Z,1.17
2019-06-15T09:08:10.547Z,0.93
2019-06-15T09:10:39.671Z,1.10
2019-06-15T09:13:08.556Z,1.63
2019-06-15T09:15:47.787Z,1.30
2019-06-15T09:18:16.849Z,0.80
2019-06-15T09:20:45.729Z,1.30
2019-06-15T09:23:14.723Z,0.90
2019-06-15T09:25:43.644Z,1.10
2019-06-15T09:28:12.596Z,1.00
2019-06-15T09:30:42.674Z,1.43
2019-06-15T09:33:11.506Z,1.20
2019-06-15T09:35:40.548Z,0.90
2019-06-15T09:38:10.274Z,1.20
2019-06-15T09:40:39.563Z,1.10
2019-06-15T09:43:08.391Z,1.70
2019-06-15T09:45:37.255Z,1.37
2019-06-15T09:48:06.937Z,0.80
2019-06-15T09:50:37.459Z,1.10
2019-06-15T09:53:06.436Z,0.90
2019-06-15T09:55:35.413Z,1.20
2019-06-15T09:58:04.341Z,1.20
2019-06-15T10:00:33.739Z,1.00
2019-06-15T10:03:02.565Z,1.70
2019-06-15T10:05:50.612Z,1.30
2019-06-15T10:08:19.543Z,1.07
2019-06-15T10:10:48.440Z,1.10
2019-06-15T10:13:17.314Z,1.27
2019-06-15T10:15:46.304Z,0.90
2019-06-15T10:18:15.148Z,1.47
2019-06-15T10:20:44.078Z,2.03
2019-06-15T10:23:13.305Z,1.30
2019-06-15T10:25:42.554Z,1.30
2019-06-15T10:28:11.761Z,1.73
2019-06-15T10:30:40.952Z,1.00
2019-06-15T10:33:09.985Z,1.40
2019-06-15T10:35:38.980Z,1.50
2019-06-15T10:38:09.606Z,1.83
2019-06-15T10:40:38.665Z,1.20
2019-06-15T10:43:07.587Z,1.33
2019-06-15T10:45:36.593Z,1.40
2019-06-15T10:48:05.772Z,1.93
2019-06-15T10:50:34.723Z,1.40
2019-06-15T10:53:05.389Z,2.10
2019-06-15T10:55:34.258Z,1.87
2019-06-15T10:58:03.225Z,1.50
2019-06-15T11:00:32.967Z,1.30
2019-06-15T11:03:01.791Z,1.20
2019-06-15T11:05:30.810Z,1.70
2019-06-15T11:08:00.047Z,1.03
2019-06-15T11:10:55.035Z,1.80
2019-06-15T11:13:23.984Z,2.03
2019-06-15T11:15:53.366Z,1.80
2019-06-15T11:18:22.972Z,1.70
2019-06-15T11:20:51.838Z,1.53
2019-06-15T11:23:20.854Z,1.93
2019-06-15T11:25:50.120Z,1.40
2019-06-15T11:28:19.021Z,1.10
2019-06-15T11:30:48.131Z,2.90
2019-06-15T11:33:17.237Z,1.50
2019-06-15T11:35:46.279Z,1.43
2019-06-15T11:38:15.127Z,1.40
2019-06-15T11:40:44.099Z,1.37
2019-06-15T11:43:13.703Z,1.20
2019-06-15T11:45:42.572Z,1.53
2019-06-15T11:48:11.499Z,1.50
2019-06-15T11:50:40.481Z,1.40
2019-06-15T11:53:09.428Z,1.30
2019-06-15T11:55:39.799Z,1.57
2019-06-15T11:58:09.003Z,1.60
2019-06-15T12:00:40.422Z,1.60
2019-06-15T12:03:09.587Z,1.30
2019-06-15T12:05:38.878Z,1.50
2019-06-15T12:08:08.591Z,1.50
2019-06-15T12:10:37.680Z,1.80
2019-06-15T12:13:07.182Z,2.30
2019-06-15T12:15:36.254Z,2.37
2019-06-15T12:18:05.255Z,2.77
2019-06-15T12:20:38.919Z,2.40
2019-06-15T12:23:06.500Z,2.10
2019-06-15T12:25:35.521Z,1.87
2019-06-15T12:28:04.699Z,3.30
2019-06-15T12:30:47.109Z,2.47
2019-06-15T12:33:14.482Z,2.07
2019-06-15T12:35:43.448Z,2.00
2019-06-15T12:38:12.412Z,2.43
2019-06-15T12:40:42.057Z,2.67
2019-06-15T12:43:29.622Z,2.13
2019-06-15T12:45:58.591Z,2.60
2019-06-15T12:48:27.562Z,1.90
2019-06-15T12:50:56.509Z,2.07
2019-06-15T12:53:25.343Z,3.03
2019-06-15T12:55:54.558Z,3.10
2019-06-15T12:58:23.515Z,2.33
2019-06-15T13:01:02.523Z,2.33
2019-06-15T13:03:23.067Z,2.37
2019-06-15T13:05:52.028Z,2.00
2019-06-15T13:08:21.252Z,2.40
2019-06-15T13:10:50.196Z,2.20
2019-06-15T13:13:19.077Z,2.13
2019-06-15T13:15:48.363Z,2.40
2019-06-15T13:18:17.324Z,2.50
2019-06-15T13:20:46.893Z,2.57
2019-06-15T13:23:15.757Z,2.20
2019-06-15T13:25:44.572Z,2.37
2019-06-15T13:28:13.543Z,2.17
2019-06-15T13:30:42.698Z,2.77
2019-06-15T13:33:11.524Z,2.33
2019-06-15T13:35:40.594Z,2.30
2019-06-15T13:38:09.511Z,2.47
2019-06-15T13:40:38.809Z,2.27
2019-06-15T13:43:07.760Z,2.60
2019-06-15T13:45:36.619Z,2.30
2019-06-15T13:48:05.623Z,2.50
2019-06-15T13:50:34.618Z,3.03
2019-06-15T13:53:03.461Z,3.50
2019-06-15T13:55:32.371Z,2.67
2019-06-15T13:58:01.337Z,1.77
2019-06-15T14:00:30.172Z,3.30
2019-06-15T14:02:59.030Z,2.20
2019-06-15T14:05:27.931Z,2.90
2019-06-15T14:07:56.780Z,3.37
2019-06-15T14:10:26.056Z,3.23
2019-06-15T14:12:55.202Z,2.60
2019-06-15T14:15:24.110Z,2.73
2019-06-15T14:17:53.040Z,2.90
2019-06-15T14:20:21.884Z,3.10
2019-06-15T14:22:50.714Z,3.50
2019-06-15T14:25:20.123Z,2.33
2019-06-15T14:27:49.546Z,2.57
2019-06-15T14:30:20.440Z,3.33
2019-06-15T14:32:50.019Z,2.57
2019-06-15T14:35:18.972Z,3.20
2019-06-15T14:37:47.888Z,2.50
2019-06-15T14:40:16.907Z,2.43
2019-06-15T14:42:45.895Z,3.10
2019-06-15T14:45:15.274Z,2.63
2019-06-15T14:47:44.679Z,2.77
2019-06-15T14:50:13.649Z,3.00
2019-06-15T14:52:42.554Z,2.67
2019-06-15T14:55:11.684Z,2.30
2019-06-15T14:57:40.675Z,3.53
2019-06-15T15:00:09.827Z,2.70
2019-06-15T15:02:38.808Z,3.30
2019-06-15T15:05:08.148Z,2.50
2019-06-15T15:07:37.130Z,2.77
2019-06-15T15:10:08.718Z,2.70
2019-06-15T15:12:40.760Z,3.47
2019-06-15T15:15:08.470Z,2.47
2019-06-15T15:17:37.450Z,2.17
2019-06-15T15:20:07.446Z,3.07
2019-06-15T15:22:37.270Z,2.90
2019-06-15T15:25:06.721Z,3.03
2019-06-15T15:27:37.390Z,3.80
2019-06-15T15:30:06.857Z,2.10
2019-06-15T15:32:37.020Z,1.73
2019-06-15T15:35:06.795Z,3.20
2019-06-15T15:37:37.173Z,2.47
2019-06-15T15:40:07.442Z,2.80
2019-06-15T15:42:37.268Z,2.80
2019-06-15T15:45:07.294Z,2.40
2019-06-15T15:47:36.403Z,2.33
2019-06-15T15:50:06.420Z,2.10
2019-06-15T15:52:37.538Z,2.53
2019-06-15T15:55:06.755Z,2.47
2019-06-15T15:57:36.401Z,2.67
2019-06-15T16:00:07.311Z,2.30
2019-06-15T16:02:47.683Z,3.30
2019-06-15T16:05:07.590Z,2.63
2019-06-15T16:07:36.559Z,2.50
2019-06-15T16:10:07.271Z,2.90
2019-06-15T16:12:36.421Z,2.20
2019-06-15T16:15:07.230Z,2.73
2019-06-15T16:17:37.369Z,2.40
2019-06-15T16:20:10.772Z,2.60
2019-06-15T16:22:39.611Z,3.30
2019-06-15T16:25:08.610Z,2.30
2019-06-15T16:27:37.508Z,2.10
2019-06-15T16:30:06.791Z,2.43
2019-06-15T16:32:37.212Z,2.30
2019-06-15T16:35:07.224Z,2.20
2019-06-15T16:37:36.461Z,2.70
2019-06-15T16:40:06.417Z,2.33
2019-06-15T16:42:36.585Z,2.50
2019-06-15T16:45:06.793Z,2.50
2019-06-15T16:47:36.479Z,2.90
2019-06-15T16:50:06.947Z,1.93
2019-06-15T16:52:36.527Z,2.30
2019-06-15T16:55:06.885Z,2.30
2019-06-15T16:57:37.074Z,2.60
2019-06-15T17:00:08.855Z,3.33
2019-06-15T17:02:46.841Z,2.60
2019-06-15T17:05:16.751Z,2.70
2019-06-15T17:07:46.034Z,2.30
2019-06-15T17:10:16.997Z,2.20
2019-06-15T17:12:47.583Z,3.20
2019-06-15T17:15:17.070Z,2.80
2019-06-15T17:17:46.243Z,3.40
2019-06-15T17:20:16.799Z,2.50
2019-06-15T17:22:47.281Z,2.53
2019-06-15T17:25:16.694Z,3.00
2019-06-15T17:27:46.946Z,2.87
2019-06-15T17:30:17.181Z,2.97
2019-06-15T17:32:46.539Z,3.70
2019-06-15T17:35:16.922Z,3.17
2019-06-15T17:37:47.038Z,3.60
2019-06-15T17:40:16.369Z,2.30
2019-06-15T17:42:45.410Z,2.67
2019-06-15T17:45:16.118Z,3.07
2019-06-15T17:47:46.724Z,2.50
2019-06-15T17:50:17.064Z,2.80
2019-06-15T17:52:46.779Z,2.57
2019-06-15T17:55:17.920Z,2.50
2019-06-15T17:58:46.549Z,2.60
2019-06-15T18:01:17.201Z,2.73
2019-06-15T18:03:53.294Z,3.00
2019-06-15T18:06:17.556Z,3.00
2019-06-15T18:08:46.781Z,2.10
2019-06-15T18:11:16.548Z,1.80
2019-06-15T18:13:47.297Z,2.40
2019-06-15T18:16:16.631Z,2.53
2019-06-15T18:18:45.499Z,3.20
2019-06-15T18:21:15.972Z,3.00
2019-06-15T18:23:46.484Z,2.70
2019-06-15T18:26:16.217Z,4.57
2019-06-15T18:28:46.926Z,2.83
2019-06-15T18:31:16.409Z,2.87
2019-06-15T18:34:06.608Z,3.17
2019-06-15T18:36:22.956Z,2.70
2019-06-15T18:38:51.773Z,3.20
2019-06-15T18:41:20.845Z,3.50
2019-06-15T18:43:49.795Z,2.50
2019-06-15T18:46:18.666Z,3.40
2019-06-15T18:48:47.867Z,2.90
2019-06-15T18:51:16.738Z,3.30
2019-06-15T18:53:46.530Z,3.00
2019-06-15T18:56:16.306Z,3.20
2019-06-15T18:58:47.502Z,2.90
2019-06-15T19:01:16.509Z,2.60
2019-06-15T19:03:46.710Z,3.30
2019-06-15T19:06:16.746Z,3.00
2019-06-15T19:08:46.910Z,2.73
2019-06-15T19:11:16.516Z,3.37
2019-06-15T19:13:46.634Z,3.47
2019-06-15T19:16:16.662Z,2.90
2019-06-15T19:18:46.249Z,2.93
2019-06-15T19:21:16.903Z,3.10
2019-06-15T19:23:47.022Z,2.67
2019-06-15T19:26:16.452Z,3.00
2019-06-15T19:28:45.929Z,3.10
2019-06-15T19:31:15.069Z,2.93
2019-06-15T19:33:46.695Z,3.60
2019-06-15T19:36:14.464Z,3.20
2019-06-15T19:38:43.531Z,3.17
2019-06-15T19:41:12.449Z,2.53
2019-06-15T19:43:41.372Z,2.40
2019-06-15T19:46:10.337Z,2.97
2019-06-15T19:48:39.356Z,3.47
2019-06-15T19:51:10.234Z,2.90
2019-06-15T19:53:39.648Z,2.73
2019-06-15T19:56:08.621Z,3.07
2019-06-15T19:58:37.570Z,3.10
2019-06-15T20:01:06.952Z,3.00
2019-06-15T20:03:36.376Z,6.53
2019-06-15T20:06:06.483Z,3.30
2019-06-15T20:08:36.316Z,2.30
2019-06-15T20:11:07.252Z,2.97
2019-06-15T20:13:37.069Z,2.40
2019-06-15T20:16:07.741Z,3.10
2019-06-15T20:18:37.606Z,3.30
2019-06-15T20:21:07.259Z,2.90
2019-06-15T20:23:37.287Z,2.40
2019-06-15T20:26:06.881Z,3.23
2019-06-15T20:28:35.897Z,3.50
2019-06-15T20:31:06.399Z,3.47
2019-06-15T20:33:36.952Z,3.07
2019-06-15T20:36:06.756Z,2.67
2019-06-15T20:38:36.303Z,3.30
2019-06-15T20:41:07.400Z,2.97
2019-06-15T20:43:36.765Z,2.97
2019-06-15T20:46:07.053Z,4.03
2019-06-15T20:48:36.514Z,3.80
2019-06-15T20:51:09.866Z,3.67
2019-06-15T20:53:36.893Z,2.83
2019-06-15T20:56:06.791Z,2.87
2019-06-15T20:58:37.320Z,3.30
2019-06-15T21:01:07.199Z,3.43
2019-06-15T21:03:36.818Z,3.43
2019-06-15T21:06:06.798Z,3.43
2019-06-15T21:08:36.529Z,4.10
2019-06-15T21:11:07.172Z,3.80
2019-06-15T21:13:37.525Z,3.63
2019-06-15T21:16:06.896Z,3.03
2019-06-15T21:18:37.137Z,4.40
2019-06-15T21:21:06.977Z,3.53
2019-06-15T21:23:37.237Z,3.37
2019-06-15T21:26:06.985Z,3.00
2019-06-15T21:28:36.847Z,2.80
2019-06-15T21:31:06.313Z,2.40
2019-06-15T21:33:36.039Z,3.73
2019-06-15T21:36:06.326Z,4.03
2019-06-15T21:38:36.078Z,2.70
2019-06-15T21:41:07.773Z,3.40
2019-06-15T21:43:36.413Z,3.17
2019-06-15T21:46:06.351Z,3.07
2019-06-15T21:48:36.603Z,3.07
2019-06-15T21:51:07.991Z,3.77
2019-06-15T21:53:36.907Z,2.97
2019-06-15T21:56:07.221Z,2.90
2019-06-15T21:58:36.972Z,2.77
2019-06-15T22:01:19.277Z,3.50
2019-06-15T22:03:48.195Z,3.20
2019-06-15T22:06:17.613Z,3.90
2019-06-15T22:08:46.627Z,3.20
2019-06-15T22:11:16.038Z,3.10
2019-06-15T22:13:46.438Z,3.30
2019-06-15T22:16:16.987Z,2.80
2019-06-15T22:18:47.478Z,3.10
2019-06-15T22:21:16.692Z,4.33
2019-06-15T22:23:47.323Z,2.93
2019-06-15T22:26:17.112Z,3.23
2019-06-15T22:28:47.016Z,2.77
2019-06-15T22:31:17.164Z,2.77
2019-06-15T22:33:47.309Z,3.27
2019-06-15T22:36:24.371Z,3.50
2019-06-15T22:38:47.264Z,3.30
2019-06-15T22:41:16.772Z,3.30
2019-06-15T22:43:46.353Z,3.47
2019-06-15T22:46:16.600Z,3.90
2019-06-15T22:48:47.003Z,3.50
2019-06-15T22:51:16.861Z,3.87
2019-06-15T22:53:47.106Z,3.80
2019-06-15T22:56:17.086Z,3.60
2019-06-15T22:58:46.567Z,3.90
2019-06-15T23:01:16.858Z,3.50
2019-06-15T23:03:46.763Z,4.10
2019-06-15T23:06:16.247Z,3.80
2019-06-15T23:08:47.092Z,4.23
2019-06-15T23:11:17.406Z,3.80
2019-06-15T23:13:46.706Z,4.13
2019-06-15T23:16:15.633Z,3.40
2019-06-15T23:18:46.560Z,4.30
2019-06-15T23:21:17.268Z,4.50
2019-06-15T23:23:47.115Z,4.53
2019-06-15T23:26:16.618Z,3.93
2019-06-15T23:28:46.725Z,4.47
2019-06-15T23:31:16.707Z,3.67
2019-06-15T23:33:46.826Z,3.70
2019-06-15T23:36:21.569Z,4.37
2019-06-15T23:38:50.471Z,3.57
2019-06-15T23:41:19.350Z,3.60
2019-06-15T23:43:48.318Z,3.77
2019-06-15T23:46:17.305Z,3.67
2019-06-15T23:48:46.972Z,3.80
2019-06-15T23:51:16.982Z,3.00
2019-06-15T23:53:46.531Z,3.63
2019-06-15T23:56:15.520Z,3.67
2019-06-15T23:58:46.348Z,5.03
